sensor_id;sensor_type;location;lat;lon;timestamp;temperature;humidity
67748;HTU21D;54543;50.712;6.070;2023-04-03T00:00:03;1.52;93.14
67748;HTU21D;54543;50.712;6.070;2023-04-03T00:02:29;1.48;93.18
67748;HTU21D;54543;50.712;6.070;2023-04-03T00:04:54;1.43;93.25
67748;HTU21D;54543;50.712;6.070;2023-04-03T00:07:20;1.40;93.30
67748;HTU21D;54543;50.712;6.070;2023-04-03T00:09:46;1.37;93.37
67748;HTU21D;54543;50.712;6.070;2023-04-03T00:12:11;1.35;93.38
67748;HTU21D;54543;50.712;6.070;2023-04-03T00:14:37;1.31;93.33
67748;HTU21D;54543;50.712;6.070;2023-04-03T00:17:02;1.29;93.30
67748;HTU21D;54543;50.712;6.070;2023-04-03T00:19:28;1.27;93.30
67748;HTU21D;54543;50.712;6.070;2023-04-03T00:21:54;1.28;93.36
67748;HTU21D;54543;50.712;6.070;2023-04-03T00:24:19;1.27;93.41
67748;HTU21D;54543;50.712;6.070;2023-04-03T00:26:45;1.25;93.35
67748;HTU21D;54543;50.712;6.070;2023-04-03T00:29:10;1.26;93.38
67748;HTU21D;54543;50.712;6.070;2023-04-03T00:31:36;1.28;93.35
67748;HTU21D;54543;50.712;6.070;2023-04-03T00:34:01;1.26;93.24
67748;HTU21D;54543;50.712;6.070;2023-04-03T00:36:27;1.25;93.18
67748;HTU21D;54543;50.712;6.070;2023-04-03T00:38:52;1.23;93.04
67748;HTU21D;54543;50.712;6.070;2023-04-03T00:41:18;1.21;92.95
67748;HTU21D;54543;50.712;6.070;2023-04-03T00:43:43;1.19;92.98
67748;HTU21D;54543;50.712;6.070;2023-04-03T00:46:10;1.18;92.85
67748;HTU21D;54543;50.712;6.070;2023-04-03T00:48:44;1.19;92.90
67748;HTU21D;54543;50.712;6.070;2023-04-03T00:51:24;1.20;92.95
67748;HTU21D;54543;50.712;6.070;2023-04-03T00:53:58;1.20;92.95
67748;HTU21D;54543;50.712;6.070;2023-04-03T00:56:27;1.20;92.85
67748;HTU21D;54543;50.712;6.070;2023-04-03T00:58:58;1.18;92.77
67748;HTU21D;54543;50.712;6.070;2023-04-03T01:01:26;1.17;92.76
67748;HTU21D;54543;50.712;6.070;2023-04-03T01:03:52;1.17;92.73
67748;HTU21D;54543;50.712;6.070;2023-04-03T01:06:22;1.16;92.76
67748;HTU21D;54543;50.712;6.070;2023-04-03T01:08:50;1.13;92.58
67748;HTU21D;54543;50.712;6.070;2023-04-03T01:11:16;1.11;92.62
67748;HTU21D;54543;50.712;6.070;2023-04-03T01:13:41;1.08;92.72
67748;HTU21D;54543;50.712;6.070;2023-04-03T01:16:07;1.06;92.77
67748;HTU21D;54543;50.712;6.070;2023-04-03T01:18:34;1.02;92.79
67748;HTU21D;54543;50.712;6.070;2023-04-03T01:21:18;0.99;92.82
67748;HTU21D;54543;50.712;6.070;2023-04-03T01:24:22;0.96;92.89
67748;HTU21D;54543;50.712;6.070;2023-04-03T01:26:49;0.93;93.00
67748;HTU21D;54543;50.712;6.070;2023-04-03T01:29:15;0.90;93.00
67748;HTU21D;54543;50.712;6.070;2023-04-03T01:31:58;0.86;93.04
67748;HTU21D;54543;50.712;6.070;2023-04-03T01:34:24;0.82;93.11
67748;HTU21D;54543;50.712;6.070;2023-04-03T01:36:51;0.79;93.17
67748;HTU21D;54543;50.712;6.070;2023-04-03T01:39:17;0.78;93.31
67748;HTU21D;54543;50.712;6.070;2023-04-03T01:41:43;0.76;93.39
67748;HTU21D;54543;50.712;6.070;2023-04-03T01:44:08;0.76;93.45
67748;HTU21D;54543;50.712;6.070;2023-04-03T01:46:34;0.74;93.61
67748;HTU21D;54543;50.712;6.070;2023-04-03T01:49:00;0.68;93.68
67748;HTU21D;54543;50.712;6.070;2023-04-03T01:51:26;0.67;93.74
67748;HTU21D;54543;50.712;6.070;2023-04-03T01:53:51;0.66;93.79
67748;HTU21D;54543;50.712;6.070;2023-04-03T01:56:17;0.63;93.82
67748;HTU21D;54543;50.712;6.070;2023-04-03T01:58:43;0.61;93.79
67748;HTU21D;54543;50.712;6.070;2023-04-03T02:01:08;0.62;93.80
67748;HTU21D;54543;50.712;6.070;2023-04-03T02:03:34;0.60;93.82
67748;HTU21D;54543;50.712;6.070;2023-04-03T02:05:59;0.59;93.91
67748;HTU21D;54543;50.712;6.070;2023-04-03T02:08:25;0.57;94.01
67748;HTU21D;54543;50.712;6.070;2023-04-03T02:10:50;0.57;94.04
67748;HTU21D;54543;50.712;6.070;2023-04-03T02:13:17;0.54;94.11
67748;HTU21D;54543;50.712;6.070;2023-04-03T02:15:42;0.53;94.22
67748;HTU21D;54543;50.712;6.070;2023-04-03T02:18:08;0.53;94.23
67748;HTU21D;54543;50.712;6.070;2023-04-03T02:20:34;0.52;94.28
67748;HTU21D;54543;50.712;6.070;2023-04-03T02:23:00;0.50;94.38
67748;HTU21D;54543;50.712;6.070;2023-04-03T02:25:26;0.51;94.43
67748;HTU21D;54543;50.712;6.070;2023-04-03T02:27:52;0.49;94.42
67748;HTU21D;54543;50.712;6.070;2023-04-03T02:30:17;0.47;94.41
67748;HTU21D;54543;50.712;6.070;2023-04-03T02:32:43;0.47;94.40
67748;HTU21D;54543;50.712;6.070;2023-04-03T02:35:09;0.46;94.40
67748;HTU21D;54543;50.712;6.070;2023-04-03T02:37:35;0.45;94.46
67748;HTU21D;54543;50.712;6.070;2023-04-03T02:40:01;0.44;94.48
67748;HTU21D;54543;50.712;6.070;2023-04-03T02:42:26;0.40;94.43
67748;HTU21D;54543;50.712;6.070;2023-04-03T02:44:52;0.38;94.36
67748;HTU21D;54543;50.712;6.070;2023-04-03T02:47:17;0.36;94.40
67748;HTU21D;54543;50.712;6.070;2023-04-03T02:49:43;0.34;94.40
67748;HTU21D;54543;50.712;6.070;2023-04-03T02:52:12;0.32;94.45
67748;HTU21D;54543;50.712;6.070;2023-04-03T02:54:38;0.30;94.48
67748;HTU21D;54543;50.712;6.070;2023-04-03T02:57:03;0.28;94.49
67748;HTU21D;54543;50.712;6.070;2023-04-03T02:59:29;0.28;94.52
67748;HTU21D;54543;50.712;6.070;2023-04-03T03:01:55;0.25;94.52
67748;HTU21D;54543;50.712;6.070;2023-04-03T03:04:21;0.24;94.56
67748;HTU21D;54543;50.712;6.070;2023-04-03T03:06:47;0.22;94.63
67748;HTU21D;54543;50.712;6.070;2023-04-03T03:09:13;0.21;94.63
67748;HTU21D;54543;50.712;6.070;2023-04-03T03:11:39;0.21;94.65
67748;HTU21D;54543;50.712;6.070;2023-04-03T03:14:05;0.18;94.67
67748;HTU21D;54543;50.712;6.070;2023-04-03T03:16:31;0.18;94.69
67748;HTU21D;54543;50.712;6.070;2023-04-03T03:18:57;0.16;94.78
67748;HTU21D;54543;50.712;6.070;2023-04-03T03:21:22;0.15;94.81
67748;HTU21D;54543;50.712;6.070;2023-04-03T03:23:48;0.16;94.88
67748;HTU21D;54543;50.712;6.070;2023-04-03T03:26:13;0.15;94.88
67748;HTU21D;54543;50.712;6.070;2023-04-03T03:28:40;0.13;94.88
67748;HTU21D;54543;50.712;6.070;2023-04-03T03:31:07;0.12;94.93
67748;HTU21D;54543;50.712;6.070;2023-04-03T03:33:33;0.10;94.91
67748;HTU21D;54543;50.712;6.070;2023-04-03T03:35:59;0.09;94.91
67748;HTU21D;54543;50.712;6.070;2023-04-03T03:38:25;0.10;94.93
67748;HTU21D;54543;50.712;6.070;2023-04-03T03:40:51;0.09;94.99
67748;HTU21D;54543;50.712;6.070;2023-04-03T03:43:18;0.08;94.98
67748;HTU21D;54543;50.712;6.070;2023-04-03T03:45:44;0.08;94.98
67748;HTU21D;54543;50.712;6.070;2023-04-03T03:48:11;0.08;94.94
67748;HTU21D;54543;50.712;6.070;2023-04-03T03:50:36;0.06;94.94
67748;HTU21D;54543;50.712;6.070;2023-04-03T03:53:02;0.05;94.98
67748;HTU21D;54543;50.712;6.070;2023-04-03T03:55:28;0.05;95.01
67748;HTU21D;54543;50.712;6.070;2023-04-03T03:57:53;0.03;95.04
67748;HTU21D;54543;50.712;6.070;2023-04-03T04:00:19;0.02;95.09
67748;HTU21D;54543;50.712;6.070;2023-04-03T04:02:44;0.01;95.12
67748;HTU21D;54543;50.712;6.070;2023-04-03T04:05:11;-0.01;95.08
67748;HTU21D;54543;50.712;6.070;2023-04-03T04:07:36;-0.01;95.08
67748;HTU21D;54543;50.712;6.070;2023-04-03T04:10:02;-0.01;95.13
67748;HTU21D;54543;50.712;6.070;2023-04-03T04:12:28;-0.01;95.18
67748;HTU21D;54543;50.712;6.070;2023-04-03T04:14:53;-0.05;95.18
67748;HTU21D;54543;50.712;6.070;2023-04-03T04:17:19;-0.06;95.20
67748;HTU21D;54543;50.712;6.070;2023-04-03T04:19:45;-0.07;95.20
67748;HTU21D;54543;50.712;6.070;2023-04-03T04:22:10;-0.09;95.17
67748;HTU21D;54543;50.712;6.070;2023-04-03T04:24:36;-0.09;95.19
67748;HTU21D;54543;50.712;6.070;2023-04-03T04:27:01;-0.11;95.18
67748;HTU21D;54543;50.712;6.070;2023-04-03T04:29:27;-0.11;95.17
67748;HTU21D;54543;50.712;6.070;2023-04-03T04:31:52;-0.14;95.15
67748;HTU21D;54543;50.712;6.070;2023-04-03T04:34:18;-0.17;95.12
67748;HTU21D;54543;50.712;6.070;2023-04-03T04:36:43;-0.16;95.15
67748;HTU21D;54543;50.712;6.070;2023-04-03T04:39:09;-0.19;95.15
67748;HTU21D;54543;50.712;6.070;2023-04-03T04:41:35;-0.21;95.18
67748;HTU21D;54543;50.712;6.070;2023-04-03T04:44:00;-0.21;95.19
67748;HTU21D;54543;50.712;6.070;2023-04-03T04:46:26;-0.24;95.21
67748;HTU21D;54543;50.712;6.070;2023-04-03T04:48:52;-0.25;95.25
67748;HTU21D;54543;50.712;6.070;2023-04-03T04:51:17;-0.26;95.26
67748;HTU21D;54543;50.712;6.070;2023-04-03T04:53:43;-0.27;95.26
67748;HTU21D;54543;50.712;6.070;2023-04-03T04:56:08;-0.30;95.21
67748;HTU21D;54543;50.712;6.070;2023-04-03T04:58:34;-0.34;95.18
67748;HTU21D;54543;50.712;6.070;2023-04-03T05:01:04;-0.32;95.25
67748;HTU21D;54543;50.712;6.070;2023-04-03T05:03:30;-0.34;95.26
67748;HTU21D;54543;50.712;6.070;2023-04-03T05:05:56;-0.36;95.27
67748;HTU21D;54543;50.712;6.070;2023-04-03T05:08:22;-0.36;95.32
67748;HTU21D;54543;50.712;6.070;2023-04-03T05:10:48;-0.35;95.37
67748;HTU21D;54543;50.712;6.070;2023-04-03T05:13:14;-0.36;95.36
67748;HTU21D;54543;50.712;6.070;2023-04-03T05:15:39;-0.36;95.39
67748;HTU21D;54543;50.712;6.070;2023-04-03T05:18:05;-0.37;95.40
67748;HTU21D;54543;50.712;6.070;2023-04-03T05:20:32;-0.36;95.42
67748;HTU21D;54543;50.712;6.070;2023-04-03T05:22:57;-0.35;95.46
67748;HTU21D;54543;50.712;6.070;2023-04-03T05:25:23;-0.35;95.47
67748;HTU21D;54543;50.712;6.070;2023-04-03T05:27:49;-0.34;95.49
67748;HTU21D;54543;50.712;6.070;2023-04-03T05:30:15;-0.34;95.52
67748;HTU21D;54543;50.712;6.070;2023-04-03T05:32:41;-0.32;95.50
67748;HTU21D;54543;50.712;6.070;2023-04-03T05:35:08;-0.31;95.49
67748;HTU21D;54543;50.712;6.070;2023-04-03T05:37:34;-0.31;95.46
67748;HTU21D;54543;50.712;6.070;2023-04-03T05:40:00;-0.30;95.50
67748;HTU21D;54543;50.712;6.070;2023-04-03T05:42:26;-0.27;95.52
67748;HTU21D;54543;50.712;6.070;2023-04-03T05:44:51;-0.25;95.56
67748;HTU21D;54543;50.712;6.070;2023-04-03T05:47:18;-0.22;95.62
67748;HTU21D;54543;50.712;6.070;2023-04-03T05:49:44;-0.17;95.64
67748;HTU21D;54543;50.712;6.070;2023-04-03T05:54:48;-0.09;95.65
67748;HTU21D;54543;50.712;6.070;2023-04-03T05:57:15;-0.05;95.62
67748;HTU21D;54543;50.712;6.070;2023-04-03T05:59:42;-0.00;95.64
67748;HTU21D;54543;50.712;6.070;2023-04-03T06:02:11;0.06;95.61
67748;HTU21D;54543;50.712;6.070;2023-04-03T06:04:37;0.12;95.62
67748;HTU21D;54543;50.712;6.070;2023-04-03T06:07:02;0.18;95.61
67748;HTU21D;54543;50.712;6.070;2023-04-03T06:09:28;0.25;95.61
67748;HTU21D;54543;50.712;6.070;2023-04-03T06:11:54;0.32;95.68
67748;HTU21D;54543;50.712;6.070;2023-04-03T06:14:20;0.42;95.83
67748;HTU21D;54543;50.712;6.070;2023-04-03T06:16:45;0.54;96.42
67748;HTU21D;54543;50.712;6.070;2023-04-03T06:19:11;0.71;96.57
67748;HTU21D;54543;50.712;6.070;2023-04-03T06:21:37;0.80;96.63
67748;HTU21D;54543;50.712;6.070;2023-04-03T06:24:04;0.94;96.78
67748;HTU21D;54543;50.712;6.070;2023-04-03T06:26:30;1.06;96.46
67748;HTU21D;54543;50.712;6.070;2023-04-03T06:28:55;1.16;96.24
67748;HTU21D;54543;50.712;6.070;2023-04-03T06:31:22;1.28;96.74
67748;HTU21D;54543;50.712;6.070;2023-04-03T06:33:47;1.50;96.80
67748;HTU21D;54543;50.712;6.070;2023-04-03T06:36:13;1.63;96.39
67748;HTU21D;54543;50.712;6.070;2023-04-03T06:38:38;1.77;95.49
67748;HTU21D;54543;50.712;6.070;2023-04-03T06:41:04;1.86;94.34
67748;HTU21D;54543;50.712;6.070;2023-04-03T06:43:30;1.92;93.83
67748;HTU21D;54543;50.712;6.070;2023-04-03T06:45:58;1.98;93.21
67748;HTU21D;54543;50.712;6.070;2023-04-03T06:48:24;2.07;93.05
67748;HTU21D;54543;50.712;6.070;2023-04-03T06:50:49;2.14;92.46
67748;HTU21D;54543;50.712;6.070;2023-04-03T06:53:15;2.25;91.96
67748;HTU21D;54543;50.712;6.070;2023-04-03T06:55:40;2.28;90.73
67748;HTU21D;54543;50.712;6.070;2023-04-03T06:58:07;2.31;90.61
67748;HTU21D;54543;50.712;6.070;2023-04-03T07:00:32;2.34;89.86
67748;HTU21D;54543;50.712;6.070;2023-04-03T07:02:58;2.43;90.66
67748;HTU21D;54543;50.712;6.070;2023-04-03T07:05:24;2.52;90.57
67748;HTU21D;54543;50.712;6.070;2023-04-03T07:07:50;2.58;90.56
67748;HTU21D;54543;50.712;6.070;2023-04-03T07:10:16;2.66;90.31
67748;HTU21D;54543;50.712;6.070;2023-04-03T07:12:42;2.71;88.91
67748;HTU21D;54543;50.712;6.070;2023-04-03T07:15:08;2.80;88.42
67748;HTU21D;54543;50.712;6.070;2023-04-03T07:17:34;2.89;88.38
67748;HTU21D;54543;50.712;6.070;2023-04-03T07:20:01;3.01;88.25
67748;HTU21D;54543;50.712;6.070;2023-04-03T07:22:27;3.10;88.03
67748;HTU21D;54543;50.712;6.070;2023-04-03T07:24:52;3.11;87.61
67748;HTU21D;54543;50.712;6.070;2023-04-03T07:27:18;3.16;87.67
67748;HTU21D;54543;50.712;6.070;2023-04-03T07:29:43;3.24;87.42
67748;HTU21D;54543;50.712;6.070;2023-04-03T07:32:09;3.31;87.11
67748;HTU21D;54543;50.712;6.070;2023-04-03T07:34:36;3.39;87.32
67748;HTU21D;54543;50.712;6.070;2023-04-03T07:37:02;3.52;86.54
67748;HTU21D;54543;50.712;6.070;2023-04-03T07:39:28;3.59;86.08
67748;HTU21D;54543;50.712;6.070;2023-04-03T07:41:54;3.67;86.19
67748;HTU21D;54543;50.712;6.070;2023-04-03T07:44:23;3.71;84.64
67748;HTU21D;54543;50.712;6.070;2023-04-03T07:46:50;3.79;84.83
67748;HTU21D;54543;50.712;6.070;2023-04-03T07:49:16;3.86;83.74
67748;HTU21D;54543;50.712;6.070;2023-04-03T07:51:44;3.91;82.49
67748;HTU21D;54543;50.712;6.070;2023-04-03T07:54:10;4.00;84.21
67748;HTU21D;54543;50.712;6.070;2023-04-03T07:56:35;4.06;81.71
67748;HTU21D;54543;50.712;6.070;2023-04-03T07:59:01;4.13;83.55
67748;HTU21D;54543;50.712;6.070;2023-04-03T08:01:27;4.18;82.71
67748;HTU21D;54543;50.712;6.070;2023-04-03T08:03:52;4.29;82.21
67748;HTU21D;54543;50.712;6.070;2023-04-03T08:06:19;4.35;81.49
67748;HTU21D;54543;50.712;6.070;2023-04-03T08:08:45;4.42;82.46
67748;HTU21D;54543;50.712;6.070;2023-04-03T08:11:11;4.47;82.73
67748;HTU21D;54543;50.712;6.070;2023-04-03T08:13:37;4.54;81.73
67748;HTU21D;54543;50.712;6.070;2023-04-03T08:16:11;4.64;81.64
67748;HTU21D;54543;50.712;6.070;2023-04-03T08:18:37;4.74;81.71
67748;HTU21D;54543;50.712;6.070;2023-04-03T08:21:09;4.83;81.10
67748;HTU21D;54543;50.712;6.070;2023-04-03T08:23:35;4.90;79.70
67748;HTU21D;54543;50.712;6.070;2023-04-03T08:26:06;4.98;76.69
67748;HTU21D;54543;50.712;6.070;2023-04-03T08:28:32;5.09;78.77
67748;HTU21D;54543;50.712;6.070;2023-04-03T08:31:02;5.16;78.69
67748;HTU21D;54543;50.712;6.070;2023-04-03T08:33:28;5.19;79.55
67748;HTU21D;54543;50.712;6.070;2023-04-03T08:35:53;5.23;79.88
67748;HTU21D;54543;50.712;6.070;2023-04-03T08:38:19;5.30;79.30
67748;HTU21D;54543;50.712;6.070;2023-04-03T08:40:45;5.35;78.47
67748;HTU21D;54543;50.712;6.070;2023-04-03T08:43:54;5.41;77.47
67748;HTU21D;54543;50.712;6.070;2023-04-03T08:46:22;5.47;78.57
67748;HTU21D;54543;50.712;6.070;2023-04-03T08:48:51;5.60;78.70
67748;HTU21D;54543;50.712;6.070;2023-04-03T08:51:20;5.74;80.59
67748;HTU21D;54543;50.712;6.070;2023-04-03T08:53:56;5.86;75.92
67748;HTU21D;54543;50.712;6.070;2023-04-03T08:56:24;5.96;77.97
67748;HTU21D;54543;50.712;6.070;2023-04-03T08:58:56;6.01;77.72
67748;HTU21D;54543;50.712;6.070;2023-04-03T09:01:27;6.12;77.45
67748;HTU21D;54543;50.712;6.070;2023-04-03T09:03:55;6.20;74.73
67748;HTU21D;54543;50.712;6.070;2023-04-03T09:06:26;6.24;74.83
67748;HTU21D;54543;50.712;6.070;2023-04-03T09:20:03;6.55;77.06
67748;HTU21D;54543;50.712;6.070;2023-04-03T09:22:34;6.68;76.15
67748;HTU21D;54543;50.712;6.070;2023-04-03T09:27:47;6.89;74.96
67748;HTU21D;54543;50.712;6.070;2023-04-03T09:30:24;6.93;75.86
67748;HTU21D;54543;50.712;6.070;2023-04-03T09:32:57;7.01;75.09
67748;HTU21D;54543;50.712;6.070;2023-04-03T09:35:26;7.11;73.93
67748;HTU21D;54543;50.712;6.070;2023-04-03T09:38:00;7.05;70.55
67748;HTU21D;54543;50.712;6.070;2023-04-03T09:42:52;7.01;75.58
67748;HTU21D;54543;50.712;6.070;2023-04-03T09:45:25;7.10;73.55
67748;HTU21D;54543;50.712;6.070;2023-04-03T09:48:19;7.20;69.00
67748;HTU21D;54543;50.712;6.070;2023-04-03T09:53:45;7.34;70.27
67748;HTU21D;54543;50.712;6.070;2023-04-03T09:58:44;7.53;74.52
67748;HTU21D;54543;50.712;6.070;2023-04-03T10:06:40;7.78;73.73
67748;HTU21D;54543;50.712;6.070;2023-04-03T10:09:31;7.81;69.99
67748;HTU21D;54543;50.712;6.070;2023-04-03T10:14:54;7.47;61.86
67748;HTU21D;54543;50.712;6.070;2023-04-03T10:17:45;7.29;68.47
67748;HTU21D;54543;50.712;6.070;2023-04-03T10:20:33;7.30;66.93
67748;HTU21D;54543;50.712;6.070;2023-04-03T10:23:21;7.32;68.84
67748;HTU21D;54543;50.712;6.070;2023-04-03T10:31:40;7.46;63.99
67748;HTU21D;54543;50.712;6.070;2023-04-03T10:34:37;7.57;70.42
67748;HTU21D;54543;50.712;6.070;2023-04-03T10:37:48;7.67;65.56
67748;HTU21D;54543;50.712;6.070;2023-04-03T10:46:43;8.14;69.04
67748;HTU21D;54543;50.712;6.070;2023-04-03T10:51:49;8.31;63.54
67748;HTU21D;54543;50.712;6.070;2023-04-03T10:54:31;8.30;67.33
67748;HTU21D;54543;50.712;6.070;2023-04-03T10:57:06;8.31;63.41
67748;HTU21D;54543;50.712;6.070;2023-04-03T10:59:56;8.39;67.06
67748;HTU21D;54543;50.712;6.070;2023-04-03T11:02:26;8.48;68.16
67748;HTU21D;54543;50.712;6.070;2023-04-03T11:05:35;8.57;64.26
67748;HTU21D;54543;50.712;6.070;2023-04-03T11:11:07;8.53;63.90
67748;HTU21D;54543;50.712;6.070;2023-04-03T11:13:52;8.50;63.96
67748;HTU21D;54543;50.712;6.070;2023-04-03T11:16:24;8.28;63.89
67748;HTU21D;54543;50.712;6.070;2023-04-03T11:18:59;8.24;64.32
67748;HTU21D;54543;50.712;6.070;2023-04-03T11:21:32;8.18;67.23
67748;HTU21D;54543;50.712;6.070;2023-04-03T11:24:01;8.20;63.62
67748;HTU21D;54543;50.712;6.070;2023-04-03T11:26:31;8.34;66.70
67748;HTU21D;54543;50.712;6.070;2023-04-03T11:29:08;8.47;64.45
67748;HTU21D;54543;50.712;6.070;2023-04-03T11:32:02;8.61;62.12
67748;HTU21D;54543;50.712;6.070;2023-04-03T11:34:42;8.70;66.82
67748;HTU21D;54543;50.712;6.070;2023-04-03T11:39:58;8.67;65.15
67748;HTU21D;54543;50.712;6.070;2023-04-03T11:42:39;8.71;62.76
67748;HTU21D;54543;50.712;6.070;2023-04-03T11:47:57;8.94;63.16
67748;HTU21D;54543;50.712;6.070;2023-04-03T12:16:29;9.61;52.03
67748;HTU21D;54543;50.712;6.070;2023-04-03T12:18:57;9.65;56.02
67748;HTU21D;54543;50.712;6.070;2023-04-03T12:40:30;9.59;56.32
67748;HTU21D;54543;50.712;6.070;2023-04-03T12:45:48;9.75;53.10
67748;HTU21D;54543;50.712;6.070;2023-04-03T12:48:18;9.75;56.64
67748;HTU21D;54543;50.712;6.070;2023-04-03T12:50:47;9.75;49.98
67748;HTU21D;54543;50.712;6.070;2023-04-03T12:53:23;9.80;51.35
67748;HTU21D;54543;50.712;6.070;2023-04-03T12:55:57;9.91;52.27
67748;HTU21D;54543;50.712;6.070;2023-04-03T12:58:43;10.01;57.74
67748;HTU21D;54543;50.712;6.070;2023-04-03T13:01:22;10.12;55.67
67748;HTU21D;54543;50.712;6.070;2023-04-03T13:03:58;10.21;47.26
67748;HTU21D;54543;50.712;6.070;2023-04-03T13:06:39;10.20;42.90
67748;HTU21D;54543;50.712;6.070;2023-04-03T13:09:06;10.14;55.69
67748;HTU21D;54543;50.712;6.070;2023-04-03T13:11:44;10.16;51.46
67748;HTU21D;54543;50.712;6.070;2023-04-03T13:14:21;10.23;52.94
67748;HTU21D;54543;50.712;6.070;2023-04-03T13:17:09;10.23;49.20
67748;HTU21D;54543;50.712;6.070;2023-04-03T13:19:36;10.18;55.40
67748;HTU21D;54543;50.712;6.070;2023-04-03T13:22:06;10.16;50.69
67748;HTU21D;54543;50.712;6.070;2023-04-03T13:24:36;10.23;56.45
67748;HTU21D;54543;50.712;6.070;2023-04-03T13:27:03;10.29;55.78
67748;HTU21D;54543;50.712;6.070;2023-04-03T13:29:35;10.34;50.51
67748;HTU21D;54543;50.712;6.070;2023-04-03T13:32:03;10.30;54.78
67748;HTU21D;54543;50.712;6.070;2023-04-03T13:34:41;10.33;55.94
67748;HTU21D;54543;50.712;6.070;2023-04-03T13:37:22;10.43;53.94
67748;HTU21D;54543;50.712;6.070;2023-04-03T13:40:17;10.51;53.34
67748;HTU21D;54543;50.712;6.070;2023-04-03T13:42:42;10.54;56.33
67748;HTU21D;54543;50.712;6.070;2023-04-03T13:47:44;10.44;54.62
67748;HTU21D;54543;50.712;6.070;2023-04-03T13:50:23;10.48;53.39
67748;HTU21D;54543;50.712;6.070;2023-04-03T13:52:54;10.51;56.39
67748;HTU21D;54543;50.712;6.070;2023-04-03T14:03:12;10.67;51.50
67748;HTU21D;54543;50.712;6.070;2023-04-03T14:05:37;10.69;47.60
67748;HTU21D;54543;50.712;6.070;2023-04-03T14:08:03;10.75;54.42
67748;HTU21D;54543;50.712;6.070;2023-04-03T14:10:29;10.78;55.36
67748;HTU21D;54543;50.712;6.070;2023-04-03T14:12:55;10.83;55.94
67748;HTU21D;54543;50.712;6.070;2023-04-03T14:15:27;10.86;49.08
67748;HTU21D;54543;50.712;6.070;2023-04-03T14:17:54;10.84;54.18
67748;HTU21D;54543;50.712;6.070;2023-04-03T14:20:24;10.80;54.23
67748;HTU21D;54543;50.712;6.070;2023-04-03T14:22:51;10.78;51.21
67748;HTU21D;54543;50.712;6.070;2023-04-03T14:25:18;10.72;52.49
67748;HTU21D;54543;50.712;6.070;2023-04-03T14:27:47;10.65;53.14
67748;HTU21D;54543;50.712;6.070;2023-04-03T14:30:21;10.65;54.05
67748;HTU21D;54543;50.712;6.070;2023-04-03T14:32:48;10.58;50.34
67748;HTU21D;54543;50.712;6.070;2023-04-03T14:35:15;10.49;45.22
67748;HTU21D;54543;50.712;6.070;2023-04-03T14:37:41;10.52;53.67
67748;HTU21D;54543;50.712;6.070;2023-04-03T14:40:08;10.59;52.74
67748;HTU21D;54543;50.712;6.070;2023-04-03T14:42:36;10.67;53.56
67748;HTU21D;54543;50.712;6.070;2023-04-03T14:45:05;10.73;53.50
67748;HTU21D;54543;50.712;6.070;2023-04-03T14:47:32;10.84;54.25
67748;HTU21D;54543;50.712;6.070;2023-04-03T14:49:59;10.96;56.64
67748;HTU21D;54543;50.712;6.070;2023-04-03T14:52:32;11.13;47.96
67748;HTU21D;54543;50.712;6.070;2023-04-03T14:54:58;11.45;63.90
67748;HTU21D;54543;50.712;6.070;2023-04-03T14:57:25;11.91;61.40
67748;HTU21D;54543;50.712;6.070;2023-04-03T14:59:51;12.25;57.70
67748;HTU21D;54543;50.712;6.070;2023-04-03T15:04:55;12.78;54.87
67748;HTU21D;54543;50.712;6.070;2023-04-03T15:07:22;12.96;60.95
67748;HTU21D;54543;50.712;6.070;2023-04-03T15:09:49;13.29;61.92
67748;HTU21D;54543;50.712;6.070;2023-04-03T15:12:15;13.64;53.67
67748;HTU21D;54543;50.712;6.070;2023-04-03T15:14:41;13.89;57.96
67748;HTU21D;54543;50.712;6.070;2023-04-03T15:17:14;14.12;54.81
67748;HTU21D;54543;50.712;6.070;2023-04-03T15:19:40;14.49;61.21
67748;HTU21D;54543;50.712;6.070;2023-04-03T15:22:06;14.84;58.54
67748;HTU21D;54543;50.712;6.070;2023-04-03T15:24:31;15.08;56.98
67748;HTU21D;54543;50.712;6.070;2023-04-03T15:26:57;15.39;60.77
67748;HTU21D;54543;50.712;6.070;2023-04-03T15:29:23;15.66;57.42
67748;HTU21D;54543;50.712;6.070;2023-04-03T15:31:49;15.87;56.49
67748;HTU21D;54543;50.712;6.070;2023-04-03T15:34:17;15.88;57.34
67748;HTU21D;54543;50.712;6.070;2023-04-03T15:36:43;15.84;56.15
67748;HTU21D;54543;50.712;6.070;2023-04-03T15:39:08;15.87;58.67
67748;HTU21D;54543;50.712;6.070;2023-04-03T15:41:34;16.08;58.10
67748;HTU21D;54543;50.712;6.070;2023-04-03T15:43:59;16.26;58.06
67748;HTU21D;54543;50.712;6.070;2023-04-03T15:46:25;16.47;44.42
67748;HTU21D;54543;50.712;6.070;2023-04-03T15:48:51;16.66;56.74
67748;HTU21D;54543;50.712;6.070;2023-04-03T15:51:16;16.49;55.83
67748;HTU21D;54543;50.712;6.070;2023-04-03T15:53:42;16.42;56.80
67748;HTU21D;54543;50.712;6.070;2023-04-03T15:56:08;16.52;55.81
67748;HTU21D;54543;50.712;6.070;2023-04-03T15:58:35;16.45;54.67
67748;HTU21D;54543;50.712;6.070;2023-04-03T16:01:01;16.20;51.62
67748;HTU21D;54543;50.712;6.070;2023-04-03T16:03:27;15.93;54.25
67748;HTU21D;54543;50.712;6.070;2023-04-03T16:05:53;15.86;54.01
67748;HTU21D;54543;50.712;6.070;2023-04-03T16:08:19;15.81;53.64
67748;HTU21D;54543;50.712;6.070;2023-04-03T16:10:45;15.72;52.88
67748;HTU21D;54543;50.712;6.070;2023-04-03T16:13:11;15.63;51.06
67748;HTU21D;54543;50.712;6.070;2023-04-03T16:15:37;15.39;39.78
67748;HTU21D;54543;50.712;6.070;2023-04-03T16:18:03;15.17;50.79
67748;HTU21D;54543;50.712;6.070;2023-04-03T16:20:29;15.19;49.81
67748;HTU21D;54543;50.712;6.070;2023-04-03T16:22:57;15.33;50.27
67748;HTU21D;54543;50.712;6.070;2023-04-03T16:25:23;15.43;49.62
67748;HTU21D;54543;50.712;6.070;2023-04-03T16:27:49;15.54;50.26
67748;HTU21D;54543;50.712;6.070;2023-04-03T16:30:14;15.63;48.76
67748;HTU21D;54543;50.712;6.070;2023-04-03T16:32:40;15.61;49.46
67748;HTU21D;54543;50.712;6.070;2023-04-03T16:35:06;15.68;49.10
67748;HTU21D;54543;50.712;6.070;2023-04-03T16:37:32;15.70;43.35
67748;HTU21D;54543;50.712;6.070;2023-04-03T16:39:58;15.42;47.96
67748;HTU21D;54543;50.712;6.070;2023-04-03T16:42:24;15.27;48.53
67748;HTU21D;54543;50.712;6.070;2023-04-03T16:44:50;15.31;47.90
67748;HTU21D;54543;50.712;6.070;2023-04-03T16:47:16;15.30;47.98
67748;HTU21D;54543;50.712;6.070;2023-04-03T16:49:45;15.23;47.05
67748;HTU21D;54543;50.712;6.070;2023-04-03T16:52:11;15.10;46.48
67748;HTU21D;54543;50.712;6.070;2023-04-03T16:54:36;15.14;47.27
67748;HTU21D;54543;50.712;6.070;2023-04-03T16:57:02;15.31;45.61
67748;HTU21D;54543;50.712;6.070;2023-04-03T16:59:28;15.39;44.53
67748;HTU21D;54543;50.712;6.070;2023-04-03T17:01:53;15.28;44.59
67748;HTU21D;54543;50.712;6.070;2023-04-03T17:04:19;15.16;43.35
67748;HTU21D;54543;50.712;6.070;2023-04-03T17:06:45;15.08;45.12
67748;HTU21D;54543;50.712;6.070;2023-04-03T17:09:11;15.10;45.70
67748;HTU21D;54543;50.712;6.070;2023-04-03T17:11:37;15.12;45.86
67748;HTU21D;54543;50.712;6.070;2023-04-03T17:14:04;15.08;46.24
67748;HTU21D;54543;50.712;6.070;2023-04-03T17:16:30;15.13;45.48
67748;HTU21D;54543;50.712;6.070;2023-04-03T17:18:57;15.15;45.73
67748;HTU21D;54543;50.712;6.070;2023-04-03T17:21:23;15.26;46.02
67748;HTU21D;54543;50.712;6.070;2023-04-03T17:23:51;15.40;45.30
67748;HTU21D;54543;50.712;6.070;2023-04-03T17:26:18;15.30;43.97
67748;HTU21D;54543;50.712;6.070;2023-04-03T17:28:46;15.00;44.54